sim
Sign-in with your pilot id or email,
or register
Callsign
Passwort

Schedule Details

Flight Number: OEO1600
Departure: Munich Airport (EDDM) at 05:45
Arrival: Basel Mulhouse-Freiburg EuroAirport (LFSB) at 06:55

Weather Information
Getting current METAR information for EDDM 191320Z 03005KT 340V100 CAVOK 21/11 Q1018 NOSIG
Getting current METAR information for LFSB 191300Z VRB02KT 9999 -RA FEW032 BKN100 22/16 Q1017 NOSIG

Schedule Frequency

Route Map